sensor_id;sensor_type;location;lat;lon;timestamp;pressure;altitude;pressure_sealevel;temperature;humidity
9839;BME280;4958;48.150;11.506;2023-04-08T00:01:48;95669.19;;;9.14;68.79
9839;BME280;4958;48.150;11.506;2023-04-08T00:04:14;95665.50;;;9.09;68.90
9839;BME280;4958;48.150;11.506;2023-04-08T00:06:42;95672.13;;;9.03;69.96
9839;BME280;4958;48.150;11.506;2023-04-08T00:09:12;95664.56;;;9.02;69.87
9839;BME280;4958;48.150;11.506;2023-04-08T00:11:43;95667.00;;;9.03;69.63
9839;BME280;4958;48.150;11.506;2023-04-08T00:14:13;95665.72;;;8.99;69.80
9839;BME280;4958;48.150;11.506;2023-04-08T00:16:41;95670.84;;;8.99;69.35
9839;BME280;4958;48.150;11.506;2023-04-08T00:19:14;95673.25;;;8.92;70.31
9839;BME280;4958;48.150;11.506;2023-04-08T00:21:45;95675.34;;;8.89;70.04
9839;BME280;4958;48.150;11.506;2023-04-08T00:24:14;95669.91;;;8.84;70.37
9839;BME280;4958;48.150;11.506;2023-04-08T00:26:44;95668.31;;;8.83;70.90
9839;BME280;4958;48.150;11.506;2023-04-08T00:29:17;95671.53;;;8.85;70.50
9839;BME280;4958;48.150;11.506;2023-04-08T00:31:46;95674.69;;;8.87;71.01
9839;BME280;4958;48.150;11.506;2023-04-08T00:34:13;95676.16;;;8.89;70.45
9839;BME280;4958;48.150;11.506;2023-04-08T00:36:39;95684.97;;;8.87;70.57
9839;BME280;4958;48.150;11.506;2023-04-08T00:39:07;95679.84;;;8.87;70.67
9839;BME280;4958;48.150;11.506;2023-04-08T00:41:40;95680.63;;;8.87;70.69
9839;BME280;4958;48.150;11.506;2023-04-08T00:44:10;95684.53;;;8.83;71.09
9839;BME280;4958;48.150;11.506;2023-04-08T00:46:41;95681.16;;;8.75;71.65
9839;BME280;4958;48.150;11.506;2023-04-08T00:49:13;95677.94;;;8.73;71.92
9839;BME280;4958;48.150;11.506;2023-04-08T00:51:54;95685.31;;;8.68;72.06
9839;BME280;4958;48.150;11.506;2023-04-08T00:54:22;95677.47;;;8.69;72.35
9839;BME280;4958;48.150;11.506;2023-04-08T00:56:51;95684.34;;;8.69;71.67
9839;BME280;4958;48.150;11.506;2023-04-08T00:59:23;95689.16;;;8.72;71.82
9839;BME280;4958;48.150;11.506;2023-04-08T01:01:58;95680.34;;;8.66;72.33
9839;BME280;4958;48.150;11.506;2023-04-08T01:04:41;95676.66;;;8.69;71.60
9839;BME280;4958;48.150;11.506;2023-04-08T01:07:14;95673.78;;;8.55;72.61
9839;BME280;4958;48.150;11.506;2023-04-08T01:09:53;95669.63;;;8.54;72.99
9839;BME280;4958;48.150;11.506;2023-04-08T01:12:28;95670.25;;;8.48;73.46
9839;BME280;4958;48.150;11.506;2023-04-08T01:14:59;95675.53;;;8.47;73.66
9839;BME280;4958;48.150;11.506;2023-04-08T01:20:50;95674.44;;;8.41;74.36
9839;BME280;4958;48.150;11.506;2023-04-08T01:23:22;95673.31;;;8.44;73.86
9839;BME280;4958;48.150;11.506;2023-04-08T01:25:52;95670.75;;;8.44;73.83
9839;BME280;4958;48.150;11.506;2023-04-08T01:28:20;95675.72;;;8.37;74.26
9839;BME280;4958;48.150;11.506;2023-04-08T01:30:48;95680.06;;;8.37;74.09
9839;BME280;4958;48.150;11.506;2023-04-08T01:33:17;95670.59;;;8.37;74.52
9839;BME280;4958;48.150;11.506;2023-04-08T01:35:49;95669.28;;;8.25;75.43
9839;BME280;4958;48.150;11.506;2023-04-08T01:38:22;95673.28;;;8.27;74.58
9839;BME280;4958;48.150;11.506;2023-04-08T01:40:56;95672.16;;;8.30;74.97
9839;BME280;4958;48.150;11.506;2023-04-08T01:43:30;95675.06;;;8.35;74.25
9839;BME280;4958;48.150;11.506;2023-04-08T01:46:01;95670.38;;;8.30;74.15
9839;BME280;4958;48.150;11.506;2023-04-08T01:48:29;95674.25;;;8.26;74.72
9839;BME280;4958;48.150;11.506;2023-04-08T01:51:01;95672.16;;;8.22;75.10
9839;BME280;4958;48.150;11.506;2023-04-08T01:53:29;95674.88;;;8.12;75.81
9839;BME280;4958;48.150;11.506;2023-04-08T01:56:11;95671.34;;;8.05;76.64
9839;BME280;4958;48.150;11.506;2023-04-08T01:58:40;95671.00;;;8.08;76.43
9839;BME280;4958;48.150;11.506;2023-04-08T02:01:10;95677.44;;;8.12;75.64
9839;BME280;4958;48.150;11.506;2023-04-08T02:03:44;95669.28;;;8.17;75.40
9839;BME280;4958;48.150;11.506;2023-04-08T02:06:14;95682.75;;;8.19;75.48
9839;BME280;4958;48.150;11.506;2023-04-08T02:08:42;95673.75;;;8.15;75.85
9839;BME280;4958;48.150;11.506;2023-04-08T02:11:10;95674.88;;;8.12;75.73
9839;BME280;4958;48.150;11.506;2023-04-08T02:13:39;95674.22;;;8.10;75.97
9839;BME280;4958;48.150;11.506;2023-04-08T02:16:11;95671.66;;;8.10;75.86
9839;BME280;4958;48.150;11.506;2023-04-08T02:18:54;95678.06;;;8.14;75.75
9839;BME280;4958;48.150;11.506;2023-04-08T02:21:30;95678.88;;;8.15;75.46
9839;BME280;4958;48.150;11.506;2023-04-08T02:24:01;95674.38;;;8.09;76.40
9839;BME280;4958;48.150;11.506;2023-04-08T02:26:32;95676.94;;;8.09;76.00
9839;BME280;4958;48.150;11.506;2023-04-08T02:29:05;95681.47;;;8.07;76.62
9839;BME280;4958;48.150;11.506;2023-04-08T02:31:37;95673.13;;;8.05;76.69
9839;BME280;4958;48.150;11.506;2023-04-08T02:34:08;95678.09;;;8.06;76.26
9839;BME280;4958;48.150;11.506;2023-04-08T02:36:48;95674.88;;;8.04;76.67
9839;BME280;4958;48.150;11.506;2023-04-08T02:39:16;95680.31;;;8.01;76.57
9839;BME280;4958;48.150;11.506;2023-04-08T02:41:44;95673.75;;;7.98;77.01
9839;BME280;4958;48.150;11.506;2023-04-08T02:44:10;95671.97;;;7.99;76.79
9839;BME280;4958;48.150;11.506;2023-04-08T02:46:37;95673.28;;;8.03;76.19
9839;BME280;4958;48.150;11.506;2023-04-08T02:49:06;95675.69;;;8.05;76.22
9839;BME280;4958;48.150;11.506;2023-04-08T02:51:33;95676.00;;;8.02;76.43
9839;BME280;4958;48.150;11.506;2023-04-08T02:53:59;95674.38;;;8.01;76.65
9839;BME280;4958;48.150;11.506;2023-04-08T02:56:28;95679.03;;;7.97;76.89
9839;BME280;4958;48.150;11.506;2023-04-08T02:58:55;95673.25;;;7.95;77.27
9839;BME280;4958;48.150;11.506;2023-04-08T03:01:22;95675.47;;;7.90;77.53
9839;BME280;4958;48.150;11.506;2023-04-08T03:03:53;95675.97;;;7.85;77.90
9839;BME280;4958;48.150;11.506;2023-04-08T03:06:23;95677.22;;;7.81;78.24
9839;BME280;4958;48.150;11.506;2023-04-08T03:08:51;95675.63;;;7.80;78.38
9839;BME280;4958;48.150;11.506;2023-04-08T03:11:17;95680.91;;;7.79;78.41
9839;BME280;4958;48.150;11.506;2023-04-08T03:13:43;95680.91;;;7.79;78.62
9839;BME280;4958;48.150;11.506;2023-04-08T03:16:12;95691.66;;;7.82;78.23
9839;BME280;4958;48.150;11.506;2023-04-08T03:18:39;95690.53;;;7.85;78.31
9839;BME280;4958;48.150;11.506;2023-04-08T03:21:05;95687.97;;;7.85;78.59
9839;BME280;4958;48.150;11.506;2023-04-08T03:23:42;95683.66;;;7.85;78.73
9839;BME280;4958;48.150;11.506;2023-04-08T03:26:11;95683.34;;;7.88;78.28
9839;BME280;4958;48.150;11.506;2023-04-08T03:28:37;95682.06;;;7.92;77.95
9839;BME280;4958;48.150;11.506;2023-04-08T03:31:04;95689.25;;;7.89;78.88
9839;BME280;4958;48.150;11.506;2023-04-08T03:33:31;95682.84;;;7.93;78.18
9839;BME280;4958;48.150;11.506;2023-04-08T03:36:00;95681.41;;;7.90;78.96
9839;BME280;4958;48.150;11.506;2023-04-08T03:38:29;95684.78;;;7.91;79.09
9839;BME280;4958;48.150;11.506;2023-04-08T03:40:59;95686.06;;;7.87;79.53
9839;BME280;4958;48.150;11.506;2023-04-08T03:43:25;95686.88;;;7.87;79.48
9839;BME280;4958;48.150;11.506;2023-04-08T03:45:59;95691.81;;;7.89;79.33
9839;BME280;4958;48.150;11.506;2023-04-08T03:48:27;95693.09;;;7.93;79.67
9839;BME280;4958;48.150;11.506;2023-04-08T03:51:01;95703.69;;;7.98;79.58
9839;BME280;4958;48.150;11.506;2023-04-08T03:53:27;95700.03;;;8.01;79.28
9839;BME280;4958;48.150;11.506;2023-04-08T03:55:56;95699.38;;;7.98;80.27
9839;BME280;4958;48.150;11.506;2023-04-08T03:58:29;95698.41;;;8.00;80.21
9839;BME280;4958;48.150;11.506;2023-04-08T04:00:56;95699.38;;;7.98;80.01
9839;BME280;4958;48.150;11.506;2023-04-08T04:03:22;95702.75;;;7.99;80.13
9839;BME280;4958;48.150;11.506;2023-04-08T04:06:05;95697.47;;;8.01;80.27
9839;BME280;4958;48.150;11.506;2023-04-08T04:08:40;95705.00;;;8.02;81.06
9839;BME280;4958;48.150;11.506;2023-04-08T04:11:06;95702.94;;;8.06;80.66
9839;BME280;4958;48.150;11.506;2023-04-08T04:13:36;95710.47;;;8.07;81.14
9839;BME280;4958;48.150;11.506;2023-04-08T04:16:07;95708.84;;;8.14;80.40
9839;BME280;4958;48.150;11.506;2023-04-08T04:18:39;95712.22;;;8.07;81.42
9839;BME280;4958;48.150;11.506;2023-04-08T04:21:07;95716.56;;;8.06;80.91
9839;BME280;4958;48.150;11.506;2023-04-08T04:23:38;95719.56;;;8.10;80.89
9839;BME280;4958;48.150;11.506;2023-04-08T04:26:07;95717.66;;;8.12;81.05
9839;BME280;4958;48.150;11.506;2023-04-08T04:28:36;95720.06;;;8.05;81.51
9839;BME280;4958;48.150;11.506;2023-04-08T04:31:02;95725.03;;;8.07;81.65
9839;BME280;4958;48.150;11.506;2023-04-08T04:33:31;95724.56;;;8.11;81.55
9839;BME280;4958;48.150;11.506;2023-04-08T04:35:58;95723.94;;;8.17;80.89
9839;BME280;4958;48.150;11.506;2023-04-08T04:38:32;95726.19;;;8.20;80.97
9839;BME280;4958;48.150;11.506;2023-04-08T04:41:04;95726.03;;;8.22;81.25
9839;BME280;4958;48.150;11.506;2023-04-08T04:43:33;95728.94;;;8.27;80.38
9839;BME280;4958;48.150;11.506;2023-04-08T04:46:09;95721.69;;;8.30;80.54
9839;BME280;4958;48.150;11.506;2023-04-08T04:48:35;95733.75;;;8.38;80.07
9839;BME280;4958;48.150;11.506;2023-04-08T04:51:06;95735.38;;;8.39;80.32
9839;BME280;4958;48.150;11.506;2023-04-08T04:53:50;95744.84;;;8.39;80.46
9839;BME280;4958;48.150;11.506;2023-04-08T04:56:19;95745.63;;;8.39;80.34
9839;BME280;4958;48.150;11.506;2023-04-08T04:58:46;95744.22;;;8.45;80.48
9839;BME280;4958;48.150;11.506;2023-04-08T05:01:15;95740.50;;;8.47;80.28
9839;BME280;4958;48.150;11.506;2023-04-08T05:03:42;95741.00;;;8.43;81.46
9839;BME280;4958;48.150;11.506;2023-04-08T05:06:14;95745.63;;;8.47;81.03
9839;BME280;4958;48.150;11.506;2023-04-08T05:08:51;95744.22;;;8.45;82.40
9839;BME280;4958;48.150;11.506;2023-04-08T05:11:20;95739.53;;;8.48;81.76
9839;BME280;4958;48.150;11.506;2023-04-08T05:13:54;95742.91;;;8.49;82.39
9839;BME280;4958;48.150;11.506;2023-04-08T05:16:27;95745.47;;;8.57;81.57
9839;BME280;4958;48.150;11.506;2023-04-08T05:18:54;95746.63;;;8.62;81.87
9839;BME280;4958;48.150;11.506;2023-04-08T05:21:23;95741.16;;;8.65;81.67
9839;BME280;4958;48.150;11.506;2023-04-08T05:23:53;95752.06;;;8.68;82.14
9839;BME280;4958;48.150;11.506;2023-04-08T05:26:22;95747.06;;;8.66;82.21
9839;BME280;4958;48.150;11.506;2023-04-08T05:28:49;95744.22;;;8.61;82.56
9839;BME280;4958;48.150;11.506;2023-04-08T05:31:16;95745.31;;;8.66;82.30
9839;BME280;4958;48.150;11.506;2023-04-08T05:33:45;95746.63;;;8.62;82.83
9839;BME280;4958;48.150;11.506;2023-04-08T05:36:14;95747.25;;;8.64;82.81
9839;BME280;4958;48.150;11.506;2023-04-08T05:38:43;95752.06;;;8.76;81.55
9839;BME280;4958;48.150;11.506;2023-04-08T05:41:12;95750.31;;;8.84;82.04
9839;BME280;4958;48.150;11.506;2023-04-08T05:43:39;95744.66;;;8.89;81.84
9839;BME280;4958;48.150;11.506;2023-04-08T05:46:09;95745.16;;;8.92;81.22
9839;BME280;4958;48.150;11.506;2023-04-08T05:48:38;95745.00;;;8.94;81.35
9839;BME280;4958;48.150;11.506;2023-04-08T05:51:12;95749.31;;;8.93;81.13
9839;BME280;4958;48.150;11.506;2023-04-08T05:53:39;95748.84;;;8.98;81.29
9839;BME280;4958;48.150;11.506;2023-04-08T05:56:08;95749.50;;;9.00;80.94
9839;BME280;4958;48.150;11.506;2023-04-08T05:58:37;95751.09;;;9.01;80.83
9839;BME280;4958;48.150;11.506;2023-04-08T06:01:07;95755.91;;;9.04;81.51
9839;BME280;4958;48.150;11.506;2023-04-08T06:03:33;95753.00;;;9.07;80.99
9839;BME280;4958;48.150;11.506;2023-04-08T06:05:59;95758.44;;;9.12;81.30
9839;BME280;4958;48.150;11.506;2023-04-08T06:08:28;95755.72;;;9.22;80.54
9839;BME280;4958;48.150;11.506;2023-04-08T06:10:55;95763.44;;;9.22;80.62
9839;BME280;4958;48.150;11.506;2023-04-08T06:13:21;95759.88;;;9.23;80.86
9839;BME280;4958;48.150;11.506;2023-04-08T06:15:54;95762.75;;;9.28;80.20
9839;BME280;4958;48.150;11.506;2023-04-08T06:18:23;95773.81;;;9.28;80.28
9839;BME280;4958;48.150;11.506;2023-04-08T06:20:50;95774.31;;;9.24;80.27
9839;BME280;4958;48.150;11.506;2023-04-08T06:23:16;95770.97;;;9.23;81.45
9839;BME280;4958;48.150;11.506;2023-04-08T06:25:44;95767.09;;;9.27;81.03
9839;BME280;4958;48.150;11.506;2023-04-08T06:28:10;95776.25;;;9.30;81.57
9839;BME280;4958;48.150;11.506;2023-04-08T06:30:37;95772.38;;;9.26;80.99
9839;BME280;4958;48.150;11.506;2023-04-08T06:33:07;95774.00;;;9.27;80.53
9839;BME280;4958;48.150;11.506;2023-04-08T06:35:34;95780.09;;;9.26;81.62
9839;BME280;4958;48.150;11.506;2023-04-08T06:38:01;95779.13;;;9.27;81.71
9839;BME280;4958;48.150;11.506;2023-04-08T06:40:30;95778.84;;;9.22;82.45
9839;BME280;4958;48.150;11.506;2023-04-08T06:42:59;95780.25;;;9.24;82.07
9839;BME280;4958;48.150;11.506;2023-04-08T06:45:25;95787.16;;;9.24;81.60
9839;BME280;4958;48.150;11.506;2023-04-08T06:47:52;95790.88;;;9.13;81.98
9839;BME280;4958;48.150;11.506;2023-04-08T06:50:21;95791.50;;;9.07;81.68
9839;BME280;4958;48.150;11.506;2023-04-08T06:52:56;95792.00;;;9.11;81.78
9839;BME280;4958;48.150;11.506;2023-04-08T06:55:25;95789.75;;;9.16;81.43
9839;BME280;4958;48.150;11.506;2023-04-08T06:57:53;95793.63;;;9.20;81.28
9839;BME280;4958;48.150;11.506;2023-04-08T07:00:20;95799.41;;;9.22;81.08
9839;BME280;4958;48.150;11.506;2023-04-08T07:02:46;95790.69;;;9.31;80.84
9839;BME280;4958;48.150;11.506;2023-04-08T07:05:14;95798.25;;;9.32;80.61
9839;BME280;4958;48.150;11.506;2023-04-08T07:07:45;95796.63;;;9.31;80.35
9839;BME280;4958;48.150;11.506;2023-04-08T07:10:15;95806.75;;;9.25;80.60
9839;BME280;4958;48.150;11.506;2023-04-08T07:12:44;95796.81;;;9.22;80.04
9839;BME280;4958;48.150;11.506;2023-04-08T07:15:14;95807.91;;;9.22;80.33
9839;BME280;4958;48.150;11.506;2023-04-08T07:17:43;95809.03;;;9.20;80.59
9839;BME280;4958;48.150;11.506;2023-04-08T07:20:11;95807.25;;;9.20;80.01
9839;BME280;4958;48.150;11.506;2023-04-08T07:22:39;95811.28;;;9.23;79.46
9839;BME280;4958;48.150;11.506;2023-04-08T07:25:09;95812.38;;;9.12;79.64
9839;BME280;4958;48.150;11.506;2023-04-08T07:27:37;95810.63;;;9.13;79.11
9839;BME280;4958;48.150;11.506;2023-04-08T07:30:05;95814.63;;;9.15;79.02
9839;BME280;4958;48.150;11.506;2023-04-08T07:32:45;95819.13;;;9.13;79.46
9839;BME280;4958;48.150;11.506;2023-04-08T07:35:12;95822.34;;;9.23;78.72
9839;BME280;4958;48.150;11.506;2023-04-08T07:37:39;95818.16;;;9.30;77.79
9839;BME280;4958;48.150;11.506;2023-04-08T07:40:06;95824.09;;;9.39;76.69
9839;BME280;4958;48.150;11.506;2023-04-08T07:42:34;95829.72;;;9.43;76.08
9839;BME280;4958;48.150;11.506;2023-04-08T07:45:01;95828.25;;;9.48;73.67
9839;BME280;4958;48.150;11.506;2023-04-08T07:47:27;95832.09;;;9.52;72.85
9839;BME280;4958;48.150;11.506;2023-04-08T07:49:54;95834.03;;;9.58;72.83
9839;BME280;4958;48.150;11.506;2023-04-08T07:52:20;95830.31;;;9.53;69.81
9839;BME280;4958;48.150;11.506;2023-04-08T07:54:46;95833.53;;;9.47;67.01
9839;BME280;4958;48.150;11.506;2023-04-08T07:57:13;95835.47;;;9.45;66.24
9839;BME280;4958;48.150;11.506;2023-04-08T07:59:41;95831.44;;;9.50;64.18
9839;BME280;4958;48.150;11.506;2023-04-08T08:02:07;95827.91;;;9.51;63.22
9839;BME280;4958;48.150;11.506;2023-04-08T08:04:37;95823.91;;;9.49;61.55
9839;BME280;4958;48.150;11.506;2023-04-08T08:07:03;95836.75;;;9.57;61.00
9839;BME280;4958;48.150;11.506;2023-04-08T08:09:30;95834.50;;;9.54;60.10
9839;BME280;4958;48.150;11.506;2023-04-08T08:11:56;95836.91;;;9.47;59.75
9839;BME280;4958;48.150;11.506;2023-04-08T08:14:23;95837.06;;;9.46;60.77
9839;BME280;4958;48.150;11.506;2023-04-08T08:16:52;95840.59;;;9.45;61.79
9839;BME280;4958;48.150;11.506;2023-04-08T08:19:18;95842.09;;;9.39;63.52
9839;BME280;4958;48.150;11.506;2023-04-08T08:21:45;95844.78;;;9.46;64.27
9839;BME280;4958;48.150;11.506;2023-04-08T08:24:11;95840.13;;;9.49;64.94
9839;BME280;4958;48.150;11.506;2023-04-08T08:26:38;95841.41;;;9.53;65.09
9839;BME280;4958;48.150;11.506;2023-04-08T08:29:05;95846.88;;;9.50;64.98
9839;BME280;4958;48.150;11.506;2023-04-08T08:31:32;95841.25;;;9.47;65.32
9839;BME280;4958;48.150;11.506;2023-04-08T08:34:00;95851.69;;;9.45;65.35
9839;BME280;4958;48.150;11.506;2023-04-08T08:36:27;95850.75;;;9.38;63.96
9839;BME280;4958;48.150;11.506;2023-04-08T08:38:53;95850.75;;;9.38;64.20
9839;BME280;4958;48.150;11.506;2023-04-08T08:41:20;95853.63;;;9.27;63.09
9839;BME280;4958;48.150;11.506;2023-04-08T08:43:47;95856.38;;;9.25;63.02
9839;BME280;4958;48.150;11.506;2023-04-08T08:46:15;95863.44;;;9.15;61.49
9839;BME280;4958;48.150;11.506;2023-04-08T08:48:42;95861.97;;;9.05;62.64
9839;BME280;4958;48.150;11.506;2023-04-08T08:51:11;95870.97;;;9.09;63.76
9839;BME280;4958;48.150;11.506;2023-04-08T08:53:38;95866.31;;;9.12;63.88
9839;BME280;4958;48.150;11.506;2023-04-08T08:56:09;95874.03;;;9.12;64.56
9839;BME280;4958;48.150;11.506;2023-04-08T08:58:36;95868.59;;;9.23;64.61
9839;BME280;4958;48.150;11.506;2023-04-08T09:04:11;95874.06;;;9.20;68.23
9839;BME280;4958;48.150;11.506;2023-04-08T09:06:39;95880.16;;;9.03;69.43
9839;BME280;4958;48.150;11.506;2023-04-08T09:09:06;95882.53;;;8.96;69.12
9839;BME280;4958;48.150;11.506;2023-04-08T09:11:35;95884.31;;;8.96;69.22
9839;BME280;4958;48.150;11.506;2023-04-08T09:14:02;95891.63;;;8.66;69.67
9839;BME280;4958;48.150;11.506;2023-04-08T09:16:30;95890.31;;;8.54;71.46
9839;BME280;4958;48.150;11.506;2023-04-08T09:19:07;95897.56;;;8.59;71.42
9839;BME280;4958;48.150;11.506;2023-04-08T09:21:34;95890.66;;;8.68;70.77
9839;BME280;4958;48.150;11.506;2023-04-08T09:24:02;95890.50;;;8.69;70.14
9839;BME280;4958;48.150;11.506;2023-04-08T09:26:28;95889.19;;;8.57;70.07
9839;BME280;4958;48.150;11.506;2023-04-08T09:29:02;95892.72;;;8.56;70.23
9839;BME280;4958;48.150;11.506;2023-04-08T09:31:30;95896.25;;;8.55;67.74
9839;BME280;4958;48.150;11.506;2023-04-08T09:33:58;95891.31;;;8.61;67.57
9839;BME280;4958;48.150;11.506;2023-04-08T09:36:26;95893.72;;;8.63;68.66
9839;BME280;4958;48.150;11.506;2023-04-08T09:38:56;95892.75;;;8.72;67.51
9839;BME280;4958;48.150;11.506;2023-04-08T09:41:26;95899.97;;;8.69;65.59
9839;BME280;4958;48.150;11.506;2023-04-08T09:43:57;95894.69;;;8.70;65.53
9839;BME280;4958;48.150;11.506;2023-04-08T09:46:31;95898.50;;;8.66;64.62
9839;BME280;4958;48.150;11.506;2023-04-08T09:49:04;95902.88;;;8.74;65.21
9839;BME280;4958;48.150;11.506;2023-04-08T09:51:32;95894.19;;;8.66;64.85
9839;BME280;4958;48.150;11.506;2023-04-08T09:54:11;95896.44;;;8.70;65.40
9839;BME280;4958;48.150;11.506;2023-04-08T09:56:46;95903.19;;;8.71;65.25
9839;BME280;4958;48.150;11.506;2023-04-08T09:59:21;95890.34;;;8.71;65.10
9839;BME280;4958;48.150;11.506;2023-04-08T10:01:53;95896.31;;;8.79;63.66
9839;BME280;4958;48.150;11.506;2023-04-08T10:04:22;95892.44;;;8.75;66.83
9839;BME280;4958;48.150;11.506;2023-04-08T10:06:53;95880.44;;;8.92;65.37
9839;BME280;4958;48.150;11.506;2023-04-08T10:09:22;95882.06;;;8.93;64.03
9839;BME280;4958;48.150;11.506;2023-04-08T10:11:50;95881.75;;;9.04;64.52
9839;BME280;4958;48.150;11.506;2023-04-08T10:14:17;95880.44;;;9.08;65.08
9839;BME280;4958;48.150;11.506;2023-04-08T10:16:46;95881.59;;;9.22;65.10
9839;BME280;4958;48.150;11.506;2023-04-08T10:19:44;95878.84;;;9.31;64.92
9839;BME280;4958;48.150;11.506;2023-04-08T10:22:44;95878.88;;;9.40;63.98
9839;BME280;4958;48.150;11.506;2023-04-08T10:25:30;95877.91;;;9.41;63.82
9839;BME280;4958;48.150;11.506;2023-04-08T10:28:24;95882.06;;;9.50;63.43
9839;BME280;4958;48.150;11.506;2023-04-08T10:30:54;95879.47;;;9.58;63.71
9839;BME280;4958;48.150;11.506;2023-04-08T10:33:23;95878.19;;;9.62;63.67
9839;BME280;4958;48.150;11.506;2023-04-08T10:35:53;95871.59;;;9.67;62.66
9839;BME280;4958;48.150;11.506;2023-04-08T10:38:23;95876.72;;;9.76;62.23
9839;BME280;4958;48.150;11.506;2023-04-08T10:40:53;95874.78;;;9.78;62.16
9839;BME280;4958;48.150;11.506;2023-04-08T10:43:22;95874.00;;;9.77;62.35
9839;BME280;4958;48.150;11.506;2023-04-08T10:45:52;95878.81;;;9.72;63.03
9839;BME280;4958;48.150;11.506;2023-04-08T10:48:26;95876.41;;;9.62;62.10
9839;BME280;4958;48.150;11.506;2023-04-08T10:50:53;95872.91;;;9.55;62.04
9839;BME280;4958;48.150;11.506;2023-04-08T10:53:29;95875.94;;;9.51;62.38
9839;BME280;4958;48.150;11.506;2023-04-08T10:56:03;95870.34;;;9.39;63.05
9839;BME280;4958;48.150;11.506;2023-04-08T10:58:31;95878.88;;;9.40;63.03
9839;BME280;4958;48.150;11.506;2023-04-08T11:01:02;95878.53;;;9.26;63.75
9839;BME280;4958;48.150;11.506;2023-04-08T11:03:31;95868.09;;;9.20;64.86
9839;BME280;4958;48.150;11.506;2023-04-08T11:05:58;95878.06;;;9.23;65.31
9839;BME280;4958;48.150;11.506;2023-04-08T11:08:26;95879.84;;;9.22;65.37
9839;BME280;4958;48.150;11.506;2023-04-08T11:10:53;95877.75;;;9.18;65.71
9839;BME280;4958;48.150;11.506;2023-04-08T11:13:21;95879.66;;;9.16;66.25
9839;BME280;4958;48.150;11.506;2023-04-08T11:15:49;95884.16;;;9.22;66.31
9839;BME280;4958;48.150;11.506;2023-04-08T11:18:16;95888.81;;;9.10;67.03
9839;BME280;4958;48.150;11.506;2023-04-08T11:20:42;95881.25;;;8.92;67.01
9839;BME280;4958;48.150;11.506;2023-04-08T11:23:11;95884.28;;;8.88;67.62
9839;BME280;4958;48.150;11.506;2023-04-08T11:25:38;95880.59;;;8.90;67.48
9839;BME280;4958;48.150;11.506;2023-04-08T11:28:05;95876.28;;;8.99;68.49
9839;BME280;4958;48.150;11.506;2023-04-08T11:30:32;95883.97;;;9.07;68.10
9839;BME280;4958;48.150;11.506;2023-04-08T11:33:00;95884.94;;;8.98;69.12
9839;BME280;4958;48.150;11.506;2023-04-08T11:35:27;95882.22;;;8.99;68.43
9839;BME280;4958;48.150;11.506;2023-04-08T11:37:55;95882.22;;;9.08;68.58
9839;BME280;4958;48.150;11.506;2023-04-08T11:40:22;95890.22;;;9.05;68.26
9839;BME280;4958;48.150;11.506;2023-04-08T11:42:49;95889.28;;;9.06;68.25
9839;BME280;4958;48.150;11.506;2023-04-08T11:45:17;95888.81;;;9.10;67.52
9839;BME280;4958;48.150;11.506;2023-04-08T11:47:45;95884.31;;;9.04;67.80
9839;BME280;4958;48.150;11.506;2023-04-08T11:50:21;95887.53;;;8.98;68.64
9839;BME280;4958;48.150;11.506;2023-04-08T11:52:49;95895.69;;;9.10;68.58
9839;BME280;4958;48.150;11.506;2023-04-08T11:55:25;95896.34;;;9.04;68.97
9839;BME280;4958;48.150;11.506;2023-04-08T11:57:52;95891.84;;;8.97;68.31
9839;BME280;4958;48.150;11.506;2023-04-08T12:00:19;95892.16;;;8.94;68.42
9839;BME280;4958;48.150;11.506;2023-04-08T12:02:46;95896.34;;;8.95;68.53
9839;BME280;4958;48.150;11.506;2023-04-08T12:05:14;95891.03;;;8.97;68.60
9839;BME280;4958;48.150;11.506;2023-04-08T12:07:41;95900.03;;;8.93;68.68
9839;BME280;4958;48.150;11.506;2023-04-08T12:10:09;95905.50;;;8.98;68.86
9839;BME280;4958;48.150;11.506;2023-04-08T12:12:35;95910.13;;;8.94;69.10
9839;BME280;4958;48.150;11.506;2023-04-08T12:15:04;95907.06;;;8.91;69.33
9839;BME280;4958;48.150;11.506;2023-04-08T12:17:32;95915.44;;;8.93;69.25
9839;BME280;4958;48.150;11.506;2023-04-08T12:19:58;95908.50;;;8.85;69.05
9839;BME280;4958;48.150;11.506;2023-04-08T12:22:26;95912.69;;;8.86;68.84
9839;BME280;4958;48.150;11.506;2023-04-08T12:24:53;95919.56;;;8.78;68.40
9839;BME280;4958;48.150;11.506;2023-04-08T12:27:19;95919.88;;;8.75;69.04
9839;BME280;4958;48.150;11.506;2023-04-08T12:29:46;95917.94;;;8.69;68.60
9839;BME280;4958;48.150;11.506;2023-04-08T12:32:14;95918.34;;;8.48;69.21
9839;BME280;4958;48.150;11.506;2023-04-08T12:34:40;95921.25;;;8.45;69.42
9839;BME280;4958;48.150;11.506;2023-04-08T12:37:07;95921.41;;;8.43;69.83
9839;BME280;4958;48.150;11.506;2023-04-08T12:39:35;95922.22;;;8.44;69.70
9839;BME280;4958;48.150;11.506;2023-04-08T12:42:02;95924.94;;;8.50;69.55
9839;BME280;4958;48.150;11.506;2023-04-08T12:44:29;95923.88;;;8.61;69.02
9839;BME280;4958;48.150;11.506;2023-04-08T12:46:55;95933.81;;;8.64;69.21
9839;BME280;4958;48.150;11.506;2023-04-08T12:49:25;95928.53;;;8.65;68.95
9839;BME280;4958;48.150;11.506;2023-04-08T12:51:52;95926.75;;;8.58;69.21
9839;BME280;4958;48.150;11.506;2023-04-08T12:54:21;95929.00;;;8.61;69.68
9839;BME280;4958;48.150;11.506;2023-04-08T12:56:50;95926.88;;;8.56;69.88
9839;BME280;4958;48.150;11.506;2023-04-08T12:59:19;95934.41;;;8.50;69.65
9839;BME280;4958;48.150;11.506;2023-04-08T13:01:46;95931.97;;;8.48;70.40
9839;BME280;4958;48.150;11.506;2023-04-08T13:04:12;95932.69;;;8.58;69.79
9839;BME280;4958;48.150;11.506;2023-04-08T13:06:41;95923.41;;;8.65;69.90
9839;BME280;4958;48.150;11.506;2023-04-08T13:09:08;95933.38;;;8.77;69.29
9839;BME280;4958;48.150;11.506;2023-04-08T13:11:34;95932.22;;;8.71;70.08
9839;BME280;4958;48.150;11.506;2023-04-08T13:14:02;95931.56;;;8.61;71.07
9839;BME280;4958;48.150;11.506;2023-04-08T13:16:28;95937.50;;;8.70;70.49
9839;BME280;4958;48.150;11.506;2023-04-08T13:18:54;95935.44;;;8.73;70.32
9839;BME280;4958;48.150;11.506;2023-04-08T13:21:21;95936.03;;;8.59;71.22
9839;BME280;4958;48.150;11.506;2023-04-08T13:23:48;95938.63;;;8.59;71.45
9839;BME280;4958;48.150;11.506;2023-04-08T13:26:17;95935.09;;;8.60;72.08
9839;BME280;4958;48.150;11.506;2023-04-08T13:28:48;95935.09;;;8.60;73.02
9839;BME280;4958;48.150;11.506;2023-04-08T13:31:18;95937.34;;;8.63;72.74
9839;BME280;4958;48.150;11.506;2023-04-08T13:33:46;95948.72;;;8.69;72.78
9839;BME280;4958;48.150;11.506;2023-04-08T13:36:16;95946.81;;;8.71;73.04
9839;BME280;4958;48.150;11.506;2023-04-08T13:38:45;95934.28;;;8.59;73.54
9839;BME280;4958;48.150;11.506;2023-04-08T13:41:12;95942.91;;;8.50;73.88